createdAt,value
2018-03-19T00:00:26.029Z,75.80
2018-03-19T00:02:52.456Z,76.10
2018-03-19T00:05:19.219Z,75.90
2018-03-19T00:07:45.706Z,76.30
2018-03-19T00:10:12.827Z,75.90
2018-03-19T00:12:39.605Z,76.20
2018-03-19T00:15:06.435Z,75.60
2018-03-19T00:17:32.836Z,76.40
2018-03-19T00:20:00.095Z,77.20
2018-03-19T00:22:26.856Z,75.80
2018-03-19T00:24:53.616Z,77.30
2018-03-19T00:27:20.084Z,79.00
2018-03-19T00:29:46.844Z,79.20
2018-03-19T00:32:13.790Z,79.90
2018-03-19T00:34:41.544Z,80.20
2018-03-19T00:37:08.073Z,80.70
2018-03-19T00:39:34.473Z,82.00
2018-03-19T00:42:01.617Z,81.90
2018-03-19T00:44:28.592Z,81.70
2018-03-19T00:46:55.027Z,82.20
2018-03-19T00:49:21.780Z,82.80
2018-03-19T00:51:48.979Z,82.40
2018-03-19T00:54:16.654Z,82.80
2018-03-19T00:56:43.077Z,83.70
2018-03-19T00:59:09.486Z,84.00
2018-03-19T01:01:36.305Z,84.30
2018-03-19T01:04:02.720Z,84.30
2018-03-19T01:06:29.116Z,84.60
2018-03-19T01:08:56.831Z,85.10
2018-03-19T01:11:24.472Z,85.90
2018-03-19T01:13:52.931Z,85.40
2018-03-19T01:16:19.393Z,85.90
2018-03-19T01:18:46.144Z,86.10
2018-03-19T01:21:12.547Z,85.30
2018-03-19T01:23:38.965Z,84.90
2018-03-19T01:26:05.560Z,85.00
2018-03-19T01:28:32.671Z,84.80
2018-03-19T01:30:59.225Z,84.70
2018-03-19T01:33:25.610Z,85.40
2018-03-19T01:35:52.817Z,85.30
2018-03-19T01:38:19.212Z,85.60
2018-03-19T01:40:45.975Z,84.70
2018-03-19T01:43:12.876Z,84.50
2018-03-19T01:45:39.344Z,86.10
2018-03-19T01:48:05.883Z,84.80
2018-03-19T01:50:32.407Z,85.40
2018-03-19T01:52:59.083Z,86.30
2018-03-19T01:55:25.500Z,85.70
2018-03-19T01:57:51.871Z,86.70
2018-03-19T02:00:19.111Z,87.10
2018-03-19T02:02:46.101Z,87.50
2018-03-19T02:05:12.495Z,87.90
2018-03-19T02:07:39.317Z,87.10
2018-03-19T02:10:05.743Z,87.50
2018-03-19T02:12:32.214Z,88.00
2018-03-19T02:14:58.597Z,88.80
2018-03-19T02:17:25.371Z,88.70
2018-03-19T02:19:52.180Z,89.70
2018-03-19T02:22:18.571Z,91.40
2018-03-19T02:24:45.147Z,90.90
2018-03-19T02:27:11.531Z,89.70
2018-03-19T02:29:38.660Z,91.00
2018-03-19T02:32:05.479Z,92.80
2018-03-19T02:34:31.905Z,92.10
2018-03-19T02:36:58.447Z,91.80
2018-03-19T02:39:25.044Z,92.20
2018-03-19T02:41:51.496Z,93.40
2018-03-19T02:44:17.956Z,92.70
2018-03-19T02:46:44.952Z,91.80
2018-03-19T02:49:11.415Z,91.50
2018-03-19T02:51:38.024Z,91.80
2018-03-19T02:54:05.176Z,91.40
2018-03-19T02:56:32.243Z,91.60
2018-03-19T02:58:58.640Z,91.80
2018-03-19T03:01:25.861Z,91.00
2018-03-19T03:03:52.628Z,90.00
2018-03-19T03:06:20.292Z,90.40
2018-03-19T03:08:46.736Z,90.60
2018-03-19T03:11:13.119Z,90.00
2018-03-19T03:13:39.661Z,89.50
2018-03-19T03:16:06.789Z,88.60
2018-03-19T03:18:33.612Z,88.10
2018-03-19T03:21:00.073Z,88.60
2018-03-19T03:23:27.247Z,88.80
2018-03-19T03:25:54.808Z,88.90
2018-03-19T03:28:21.950Z,88.00
2018-03-19T03:30:48.444Z,87.10
2018-03-19T03:33:16.405Z,86.90
2018-03-19T03:35:42.976Z,87.90
2018-03-19T03:38:09.479Z,88.10
2018-03-19T03:40:36.024Z,89.70
2018-03-19T03:43:02.879Z,89.60
2018-03-19T03:45:29.390Z,88.90
2018-03-19T03:47:56.536Z,89.40
2018-03-19T03:50:22.992Z,89.80
2018-03-19T03:52:49.759Z,89.40
2018-03-19T03:55:16.579Z,90.00
2018-03-19T03:57:42.980Z,89.50
2018-03-19T04:00:09.465Z,89.40
2018-03-19T04:02:36.660Z,89.30
2018-03-19T04:05:03.435Z,89.20
2018-03-19T04:07:30.655Z,89.40
2018-03-19T04:09:58.161Z,90.40
2018-03-19T04:12:24.933Z,90.80
2018-03-19T04:14:52.078Z,92.10
2018-03-19T04:17:18.832Z,92.30
2018-03-19T04:19:45.984Z,93.00
2018-03-19T04:22:12.744Z,92.90
2018-03-19T04:24:39.555Z,92.50
2018-03-19T04:27:06.040Z,92.10
2018-03-19T04:29:32.628Z,91.50
2018-03-19T04:31:59.443Z,91.90
2018-03-19T04:34:25.851Z,91.40
2018-03-19T04:36:52.866Z,90.30
2018-03-19T04:39:19.639Z,89.70
2018-03-19T04:41:46.460Z,89.00
2018-03-19T04:44:13.063Z,89.50
2018-03-19T04:46:39.551Z,89.80
2018-03-19T04:49:05.936Z,90.10
2018-03-19T04:51:32.826Z,90.30
2018-03-19T04:53:59.218Z,90.90
2018-03-19T04:56:25.682Z,91.00
2018-03-19T04:58:52.214Z,90.50
2018-03-19T05:01:20.010Z,91.20
2018-03-19T05:03:47.150Z,90.40
2018-03-19T05:06:13.612Z,90.10
2018-03-19T05:08:40.022Z,90.60
2018-03-19T05:11:06.475Z,90.80
2018-03-19T05:13:32.920Z,90.60
2018-03-19T05:15:59.705Z,90.40
2018-03-19T05:18:26.723Z,90.50
2018-03-19T05:20:53.497Z,90.20
2018-03-19T05:23:20.320Z,90.40
2018-03-19T05:25:47.197Z,89.60
2018-03-19T05:28:13.971Z,89.40
2018-03-19T05:30:40.943Z,89.40
2018-03-19T05:33:07.369Z,89.90
2018-03-19T05:35:34.192Z,90.30
2018-03-19T05:38:00.616Z,89.70
2018-03-19T05:40:27.688Z,90.30
2018-03-19T05:42:54.071Z,90.20
2018-03-19T05:45:21.260Z,90.10
2018-03-19T05:47:47.901Z,89.40
2018-03-19T05:50:14.694Z,89.70
2018-03-19T05:52:41.096Z,90.10
2018-03-19T05:55:08.365Z,90.70
2018-03-19T05:57:34.807Z,89.40
2018-03-19T06:00:01.576Z,89.60
2018-03-19T06:02:28.797Z,89.70
2018-03-19T06:04:55.187Z,89.80
2018-03-19T06:07:21.572Z,89.90
2018-03-19T06:09:48.761Z,89.40
2018-03-19T06:12:15.164Z,90.40
2018-03-19T06:14:41.584Z,90.10
2018-03-19T06:17:08.130Z,89.70
2018-03-19T06:19:34.715Z,90.20
2018-03-19T06:22:01.208Z,90.40
2018-03-19T06:24:29.120Z,89.30
2018-03-19T06:26:55.557Z,89.60
2018-03-19T06:29:22.684Z,89.50
2018-03-19T06:31:49.224Z,89.20
2018-03-19T06:34:15.627Z,88.50
2018-03-19T06:36:42.789Z,88.50
2018-03-19T06:39:09.604Z,88.00
2018-03-19T06:41:36.740Z,88.40
2018-03-19T06:44:03.560Z,88.10
2018-03-19T06:46:30.001Z,88.10
2018-03-19T06:48:56.876Z,87.20
2018-03-19T06:51:23.707Z,87.40
2018-03-19T06:53:50.843Z,87.10
2018-03-19T06:56:17.631Z,87.10
2018-03-19T06:58:44.128Z,86.10
2018-03-19T07:01:11.318Z,87.20
2018-03-19T07:03:38.105Z,86.90
2018-03-19T07:06:04.894Z,87.00
2018-03-19T07:08:31.368Z,88.00
2018-03-19T07:10:58.500Z,87.60
2018-03-19T07:13:25.299Z,87.20
2018-03-19T07:15:51.743Z,86.40
2018-03-19T07:18:18.326Z,85.70
2018-03-19T07:20:44.720Z,85.10
2018-03-19T07:23:11.692Z,85.60
2018-03-19T07:25:38.484Z,85.50
2018-03-19T07:28:05.676Z,85.90
2018-03-19T07:30:32.152Z,85.90
2018-03-19T07:32:58.916Z,86.50
2018-03-19T07:35:25.748Z,85.50
2018-03-19T07:37:52.176Z,85.60
2018-03-19T07:40:18.568Z,85.70
2018-03-19T07:42:45.125Z,84.70
2018-03-19T07:45:12.254Z,84.00
2018-03-19T07:47:38.819Z,83.50
2018-03-19T07:50:05.308Z,81.80
2018-03-19T07:52:31.753Z,82.10
2018-03-19T07:54:58.424Z,81.40
2018-03-19T07:57:25.180Z,81.90
2018-03-19T07:59:52.740Z,82.10
2018-03-19T08:02:19.128Z,82.50
2018-03-19T08:04:45.976Z,81.60
2018-03-19T08:07:12.805Z,81.50
2018-03-19T08:09:40.001Z,81.60
2018-03-19T08:12:06.411Z,81.80
2018-03-19T08:14:32.874Z,81.50
2018-03-19T08:17:00.046Z,81.00
2018-03-19T08:19:28.137Z,80.70
2018-03-19T08:21:54.961Z,80.20
2018-03-19T08:24:21.351Z,79.30
2018-03-19T08:26:54.245Z,79.70
2018-03-19T08:29:21.628Z,80.20
2018-03-19T08:31:48.104Z,77.70
2018-03-19T08:34:15.021Z,76.80
2018-03-19T08:36:41.798Z,73.50
2018-03-19T08:39:08.671Z,72.70
2018-03-19T08:41:35.496Z,71.00
2018-03-19T08:44:02.390Z,71.00
2018-03-19T08:46:28.860Z,71.40
2018-03-19T08:48:55.618Z,71.60
2018-03-19T08:51:22.896Z,70.60
2018-03-19T08:53:49.387Z,67.90
2018-03-19T08:56:16.016Z,65.50
2018-03-19T08:58:42.540Z,66.20
2018-03-19T09:01:09.054Z,68.00
2018-03-19T09:03:35.544Z,67.90
2018-03-19T09:06:03.997Z,63.00
2018-03-19T09:08:30.768Z,61.10
2018-03-19T09:10:57.940Z,64.10
2018-03-19T09:13:24.697Z,66.60
2018-03-19T09:15:51.481Z,67.50
2018-03-19T09:18:18.232Z,67.90
2018-03-19T09:20:44.712Z,67.70
2018-03-19T09:23:11.520Z,68.90
2018-03-19T09:25:37.995Z,68.30
2018-03-19T09:28:04.950Z,67.20
2018-03-19T09:30:31.486Z,62.80
2018-03-19T09:32:58.023Z,61.40
2018-03-19T09:35:24.416Z,58.70
2018-03-19T09:37:51.036Z,57.50
2018-03-19T09:40:18.233Z,58.70
2018-03-19T09:42:44.634Z,61.70
2018-03-19T09:45:11.109Z,61.20
2018-03-19T09:47:37.879Z,57.40
2018-03-19T09:50:04.757Z,57.40
2018-03-19T09:52:31.895Z,56.80
2018-03-19T09:54:58.663Z,59.40
2018-03-19T09:57:25.501Z,58.30
2018-03-19T09:59:52.611Z,61.50
2018-03-19T10:02:19.367Z,62.00
2018-03-19T10:04:48.464Z,62.10
2018-03-19T10:07:14.909Z,62.60
2018-03-19T10:09:41.876Z,63.80
2018-03-19T10:12:08.659Z,64.90
2018-03-19T10:14:35.445Z,64.10
2018-03-19T10:17:01.870Z,65.50
2018-03-19T10:19:28.645Z,65.20
2018-03-19T10:21:55.727Z,66.90
2018-03-19T10:24:22.369Z,67.20
2018-03-19T10:26:49.188Z,67.30
2018-03-19T10:29:15.963Z,67.60
2018-03-19T10:31:42.856Z,67.10
2018-03-19T10:34:09.635Z,66.60
2018-03-19T10:36:36.098Z,66.30
2018-03-19T10:39:03.012Z,68.00
2018-03-19T10:41:30.160Z,67.30
2018-03-19T10:43:56.604Z,69.10
2018-03-19T10:46:23.881Z,68.80
2018-03-19T10:48:50.273Z,68.50
2018-03-19T10:51:16.652Z,68.00
2018-03-19T10:53:43.135Z,69.60
2018-03-19T10:56:09.666Z,67.00
2018-03-19T10:58:36.428Z,67.20
2018-03-19T11:01:09.328Z,67.50
2018-03-19T11:03:39.236Z,67.80
2018-03-19T11:06:12.350Z,67.70
2018-03-19T11:08:39.618Z,67.50
2018-03-19T11:11:06.018Z,66.10
2018-03-19T11:13:32.591Z,66.90
2018-03-19T11:15:59.054Z,66.70
2018-03-19T11:18:26.090Z,66.10
2018-03-19T11:20:53.353Z,65.40
2018-03-19T11:23:19.759Z,65.50
2018-03-19T11:25:46.905Z,67.70
2018-03-19T11:28:14.432Z,65.60
2018-03-19T11:30:42.066Z,64.10
2018-03-19T11:33:08.452Z,63.90
2018-03-19T11:35:35.616Z,64.00
2018-03-19T11:38:02.041Z,63.00
2018-03-19T11:40:28.435Z,62.40
2018-03-19T11:42:57.548Z,61.70
2018-03-19T11:45:24.371Z,63.10
2018-03-19T11:47:50.940Z,63.00
2018-03-19T11:50:17.404Z,64.60
2018-03-19T11:52:44.532Z,64.80
2018-03-19T11:55:14.176Z,64.30
2018-03-19T11:57:41.009Z,65.90
2018-03-19T12:00:07.531Z,65.00
2018-03-19T12:02:34.289Z,65.80
2018-03-19T12:05:01.098Z,66.20
2018-03-19T12:07:28.086Z,66.70
2018-03-19T12:09:54.910Z,68.20
2018-03-19T12:14:57.404Z,69.60
2018-03-19T12:17:24.448Z,70.20
2018-03-19T12:19:51.907Z,70.90
2018-03-19T12:22:18.370Z,70.80
2018-03-19T12:24:46.275Z,70.10
2018-03-19T12:27:12.720Z,71.00
2018-03-19T12:29:39.144Z,71.10
2018-03-19T12:32:05.707Z,72.30
2018-03-19T12:34:32.480Z,72.60
2018-03-19T12:36:58.859Z,72.20
2018-03-19T12:39:25.344Z,72.10
2018-03-19T12:41:51.843Z,73.60
2018-03-19T12:44:18.264Z,73.70
2018-03-19T12:46:44.936Z,74.10
2018-03-19T12:49:12.079Z,74.50
2018-03-19T12:51:39.237Z,76.50
2018-03-19T12:54:06.450Z,76.50
2018-03-19T12:56:34.136Z,76.80
2018-03-19T12:59:00.973Z,76.80
2018-03-19T13:01:27.457Z,78.30
2018-03-19T13:03:54.226Z,80.20
2018-03-19T13:06:20.630Z,78.70
2018-03-19T13:08:47.041Z,79.10
2018-03-19T13:11:13.787Z,80.00
2018-03-19T13:13:40.206Z,79.90
2018-03-19T13:16:06.724Z,79.80
2018-03-19T13:18:33.561Z,81.70
2018-03-19T13:21:00.038Z,82.00
2018-03-19T13:23:28.167Z,81.50
2018-03-19T13:25:56.055Z,83.00
2018-03-19T13:28:22.843Z,81.80
2018-03-19T13:30:49.330Z,82.70
2018-03-19T13:33:16.470Z,82.70
2018-03-19T13:35:43.094Z,83.40
2018-03-19T13:38:09.529Z,82.80
2018-03-19T13:40:37.947Z,82.30
2018-03-19T13:43:04.360Z,82.70
2018-03-19T13:45:31.538Z,82.50
2018-03-19T13:47:58.315Z,82.40
2018-03-19T13:50:25.092Z,81.20
2018-03-19T13:52:52.310Z,81.00
2018-03-19T13:55:19.680Z,81.30
2018-03-19T13:57:46.176Z,82.20
2018-03-19T14:00:12.681Z,81.80
2018-03-19T14:02:39.099Z,82.30
2018-03-19T14:05:06.061Z,81.70
2018-03-19T14:07:32.470Z,81.40
2018-03-19T14:09:59.282Z,81.70
2018-03-19T14:12:26.071Z,81.70
2018-03-19T14:14:52.891Z,82.60
2018-03-19T14:17:19.339Z,83.30
2018-03-19T14:19:45.875Z,84.80
2018-03-19T14:22:12.667Z,85.20
2018-03-19T14:24:39.448Z,85.60
2018-03-19T14:27:06.583Z,86.50
2018-03-19T14:29:33.834Z,87.00
2018-03-19T14:32:00.240Z,87.60
2018-03-19T14:34:27.029Z,89.80
2018-03-19T14:36:53.484Z,89.40
2018-03-19T14:39:19.912Z,89.40
2018-03-19T14:41:46.739Z,89.30
2018-03-19T14:44:13.127Z,90.10
2018-03-19T14:46:39.908Z,89.70
2018-03-19T14:49:06.756Z,90.30
2018-03-19T14:51:33.567Z,91.40
2018-03-19T14:54:00.419Z,92.40
2018-03-19T14:56:26.824Z,91.00
2018-03-19T14:58:53.666Z,92.10
2018-03-19T15:01:20.118Z,92.20
2018-03-19T15:03:47.281Z,92.20
2018-03-19T15:06:13.716Z,90.70
2018-03-19T15:08:40.476Z,92.80
2018-03-19T15:11:07.676Z,91.10
2018-03-19T15:13:34.535Z,92.50
2018-03-19T15:16:01.079Z,90.90
2018-03-19T15:18:28.203Z,90.40
2018-03-19T15:20:55.398Z,90.20
2018-03-19T15:23:22.183Z,90.60
2018-03-19T15:25:49.332Z,90.90
2018-03-19T15:28:16.112Z,90.90
2018-03-19T15:30:42.876Z,91.00
2018-03-19T15:33:09.284Z,90.80
2018-03-19T15:35:36.093Z,91.10
2018-03-19T15:38:02.676Z,91.00
2018-03-19T15:40:29.435Z,91.30
2018-03-19T15:42:56.383Z,91.50
2018-03-19T15:45:24.296Z,91.20
2018-03-19T15:47:51.444Z,91.00
2018-03-19T15:50:18.412Z,91.30
2018-03-19T15:52:44.809Z,91.70
2018-03-19T15:55:11.220Z,91.30
2018-03-19T15:57:37.722Z,91.50
2018-03-19T16:00:06.108Z,91.30
2018-03-19T16:02:32.896Z,90.70
2018-03-19T16:04:59.696Z,92.00
2018-03-19T16:07:26.102Z,90.80
2018-03-19T16:09:52.527Z,91.50
2018-03-19T16:12:18.935Z,91.70
2018-03-19T16:14:46.088Z,91.70
2018-03-19T16:17:12.948Z,91.60
2018-03-19T16:19:39.717Z,90.70
2018-03-19T16:22:06.152Z,91.10
2018-03-19T16:24:32.908Z,91.10
2018-03-19T16:26:59.791Z,91.30
2018-03-19T16:29:26.937Z,90.70
2018-03-19T16:31:53.504Z,91.20
2018-03-19T16:34:20.283Z,90.00
2018-03-19T16:36:47.248Z,90.40
2018-03-19T16:39:15.270Z,90.30
2018-03-19T16:41:42.707Z,90.80
2018-03-19T16:44:09.111Z,91.50
2018-03-19T16:46:35.903Z,90.30
2018-03-19T16:49:02.330Z,90.80
2018-03-19T16:51:43.628Z,90.20
2018-03-19T16:54:10.403Z,89.80
2018-03-19T16:56:37.185Z,89.40
2018-03-19T16:59:03.583Z,89.60
2018-03-19T17:01:30.072Z,90.10
2018-03-19T17:03:56.463Z,88.70
2018-03-19T17:06:22.856Z,89.30
2018-03-19T17:08:51.530Z,89.30
2018-03-19T17:11:17.930Z,89.30
2018-03-19T17:13:44.718Z,89.60
2018-03-19T17:16:11.715Z,89.10
2018-03-19T17:18:38.162Z,89.10
2018-03-19T17:21:06.048Z,89.00
2018-03-19T17:23:32.805Z,89.60
2018-03-19T17:25:59.409Z,89.00
2018-03-19T17:28:26.208Z,90.10
2018-03-19T17:30:53.080Z,89.70
2018-03-19T17:33:19.845Z,89.50
2018-03-19T17:35:46.280Z,90.20
2018-03-19T17:38:12.676Z,89.90
2018-03-19T17:40:39.075Z,90.90
2018-03-19T17:43:05.512Z,91.30
2018-03-19T17:45:32.304Z,91.80
2018-03-19T17:47:58.878Z,91.60
2018-03-19T17:50:25.270Z,91.80
2018-03-19T17:52:52.173Z,91.90
2018-03-19T17:55:18.588Z,91.70
2018-03-19T17:57:45.485Z,92.50
2018-03-19T18:00:12.308Z,92.80
2018-03-19T18:02:39.562Z,92.80
2018-03-19T18:05:06.192Z,91.70
2018-03-19T18:07:32.678Z,92.30
2018-03-19T18:09:59.087Z,91.30
2018-03-19T18:12:26.666Z,90.40
2018-03-19T18:14:53.484Z,90.20
2018-03-19T18:17:20.629Z,89.80
2018-03-19T18:19:47.072Z,89.80
2018-03-19T18:22:14.588Z,89.90
2018-03-19T18:24:40.968Z,90.00
2018-03-19T18:27:07.455Z,90.30
2018-03-19T18:29:33.918Z,90.60
2018-03-19T18:32:01.145Z,90.40
2018-03-19T18:34:27.588Z,90.50
2018-03-19T18:36:54.160Z,90.40
2018-03-19T18:39:20.678Z,89.50
2018-03-19T18:41:47.098Z,89.40
2018-03-19T18:44:13.780Z,89.20
2018-03-19T18:46:40.599Z,89.70
2018-03-19T18:49:07.426Z,89.40
2018-03-19T18:51:34.806Z,89.80
2018-03-19T18:54:02.005Z,90.30
2018-03-19T18:56:29.246Z,89.10
2018-03-19T18:58:56.012Z,90.80
2018-03-19T19:01:22.846Z,90.60
2018-03-19T19:03:50.490Z,90.90
2018-03-19T19:06:17.673Z,90.00
2018-03-19T19:08:44.820Z,89.30
2018-03-19T19:11:12.859Z,90.00
2018-03-19T19:13:39.939Z,90.10
2018-03-19T19:16:06.349Z,90.20
2018-03-19T19:18:33.022Z,89.80
2018-03-19T19:21:01.980Z,89.90
2018-03-19T19:23:28.384Z,90.30
2018-03-19T19:25:54.794Z,90.30
2018-03-19T19:28:21.332Z,90.30
2018-03-19T19:30:49.519Z,89.20
2018-03-19T19:33:16.413Z,89.00
2018-03-19T19:35:43.292Z,88.50
2018-03-19T19:38:11.161Z,88.50
2018-03-19T19:40:37.572Z,88.70
2018-03-19T19:43:04.428Z,89.20
2018-03-19T19:45:30.844Z,88.90
2018-03-19T19:48:00.712Z,88.20
2018-03-19T19:50:27.472Z,87.80
2018-03-19T19:52:54.266Z,87.30
2018-03-19T19:55:21.084Z,87.80
2018-03-19T19:57:49.255Z,87.60
2018-03-19T20:00:17.023Z,87.70
2018-03-19T20:02:43.845Z,87.60
2018-03-19T20:05:10.349Z,87.80
2018-03-19T20:07:36.840Z,87.30
2018-03-19T20:10:03.665Z,88.00
2018-03-19T20:12:30.225Z,87.50
2018-03-19T20:14:56.775Z,86.90
2018-03-19T20:17:23.920Z,86.40
2018-03-19T20:19:51.499Z,86.10
2018-03-19T20:22:18.848Z,85.60
2018-03-19T20:24:45.680Z,85.60
2018-03-19T20:27:12.092Z,85.50
2018-03-19T20:29:38.804Z,86.30
2018-03-19T20:32:05.213Z,86.60
2018-03-19T20:34:31.699Z,86.10
2018-03-19T20:36:58.850Z,86.30
2018-03-19T20:39:25.312Z,85.00
2018-03-19T20:41:52.288Z,85.20
2018-03-19T20:44:18.856Z,85.60
2018-03-19T20:46:45.640Z,84.70
2018-03-19T20:49:12.124Z,85.00
2018-03-19T20:51:42.252Z,85.50
2018-03-19T20:54:09.036Z,85.60
2018-03-19T20:56:35.504Z,85.60
2018-03-19T21:01:30.754Z,84.60
2018-03-19T21:03:57.512Z,85.20
2018-03-19T21:06:24.293Z,86.20
2018-03-19T21:08:54.644Z,86.40
2018-03-19T21:11:21.117Z,86.20
2018-03-19T21:13:48.065Z,86.80
2018-03-19T21:16:15.082Z,86.80
2018-03-19T21:18:42.077Z,86.90
2018-03-19T21:21:09.221Z,86.00
2018-03-19T21:23:36.093Z,85.90
2018-03-19T21:26:03.264Z,86.00
2018-03-19T21:28:30.083Z,85.30
2018-03-19T21:30:57.796Z,85.40
2018-03-19T21:33:24.215Z,85.70
2018-03-19T21:35:50.637Z,86.50
2018-03-19T21:38:18.296Z,86.20
2018-03-19T21:43:34.625Z,85.80
2018-03-19T21:46:01.826Z,86.90
2018-03-19T21:48:28.996Z,85.60
2018-03-19T21:50:55.553Z,85.80
2018-03-19T21:53:22.037Z,85.50
2018-03-19T21:55:48.435Z,86.10
2018-03-19T21:58:14.848Z,86.70
2018-03-19T22:00:42.648Z,86.90
2018-03-19T22:03:09.101Z,86.20
2018-03-19T22:05:35.558Z,86.60
2018-03-19T22:08:02.784Z,86.50
2018-03-19T22:10:29.197Z,86.30
2018-03-19T22:12:57.421Z,85.40
2018-03-19T22:15:24.298Z,83.90
2018-03-19T22:17:50.736Z,84.40
2018-03-19T22:20:17.158Z,84.40
2018-03-19T22:22:44.314Z,84.80
2018-03-19T22:25:10.781Z,85.80
2018-03-19T22:27:37.254Z,85.10
2018-03-19T22:30:04.081Z,84.70
2018-03-19T22:32:30.564Z,83.80
2018-03-19T22:34:57.483Z,83.70
2018-03-19T22:37:23.875Z,84.00
2018-03-19T22:39:50.260Z,84.50
2018-03-19T22:42:16.746Z,84.60
2018-03-19T22:44:43.213Z,85.30
2018-03-19T22:47:10.018Z,84.50
2018-03-19T22:49:36.679Z,84.60
2018-03-19T22:52:03.091Z,85.00
2018-03-19T22:54:29.869Z,85.50
2018-03-19T22:56:56.260Z,86.00
2018-03-19T22:59:23.084Z,85.20
2018-03-19T23:01:49.844Z,85.20
2018-03-19T23:17:41.300Z,84.10
2018-03-19T23:20:08.223Z,82.80
2018-03-19T23:22:34.695Z,82.80
2018-03-19T23:25:01.169Z,82.90
2018-03-19T23:27:27.614Z,82.30
2018-03-19T23:29:54.389Z,82.50
2018-03-19T23:32:20.951Z,83.60
2018-03-19T23:34:47.718Z,83.90
2018-03-19T23:37:14.643Z,83.30
2018-03-19T23:39:41.426Z,83.30
2018-03-19T23:42:07.829Z,82.80
2018-03-19T23:44:34.269Z,82.50
2018-03-19T23:47:00.746Z,82.30
2018-03-19T23:49:27.237Z,82.00
2018-03-19T23:51:53.636Z,81.90
2018-03-19T23:54:27.869Z,82.00
2018-03-19T23:56:54.562Z,81.90
2018-03-19T23:59:20.964Z,81.90
